createdAt,value
2022-11-10T00:23:24.848Z,8.31
2022-11-10T00:43:27.830Z,8.22
2022-11-10T01:03:30.787Z,8.11
2022-11-10T01:23:33.570Z,8.03
2022-11-10T01:43:36.191Z,7.89
2022-11-10T02:03:39.722Z,7.85
2022-11-10T02:23:42.345Z,7.84
2022-11-10T02:43:45.021Z,7.87
2022-11-10T03:03:47.616Z,7.87
2022-11-10T03:23:50.204Z,8.84
2022-11-10T03:43:53.013Z,9.17
2022-11-10T04:03:55.633Z,9.27
2022-11-10T05:04:31.672Z,9.69
2022-11-10T05:44:57.702Z,10.01
2022-11-10T06:05:00.309Z,10.13
2022-11-10T06:25:02.781Z,10.25
2022-11-10T06:45:05.213Z,10.38
2022-11-10T07:05:07.656Z,10.49
2022-11-10T07:25:10.154Z,10.81
2022-11-10T07:45:12.614Z,11.06
2022-11-10T08:05:15.252Z,11.15
2022-11-10T08:25:17.952Z,10.95
2022-11-10T08:45:20.415Z,11.45
2022-11-10T09:05:23.090Z,11.93
2022-11-10T09:25:25.637Z,11.79
2022-11-10T09:45:28.369Z,11.80
2022-11-10T10:05:30.778Z,12.02
2022-11-10T10:25:33.202Z,12.16
2022-11-10T10:45:39.290Z,12.73
2022-11-10T11:05:41.794Z,12.66
2022-11-10T11:25:44.292Z,13.21
2022-11-10T11:45:46.753Z,13.24
2022-11-10T12:05:49.222Z,13.40
2022-11-10T12:25:51.638Z,12.92
2022-11-10T12:45:54.029Z,12.40
2022-11-10T13:05:56.480Z,12.80
2022-11-10T13:25:59.460Z,13.28
2022-11-10T13:46:06.012Z,13.17
2022-11-10T14:26:29.252Z,13.15
2022-11-10T14:46:31.741Z,12.77
2022-11-10T15:06:34.253Z,12.44
2022-11-10T15:26:36.702Z,12.52
2022-11-10T15:46:39.318Z,12.33
2022-11-10T16:06:42.151Z,12.12
2022-11-10T16:26:44.647Z,11.78
2022-11-10T16:46:47.088Z,10.81
2022-11-10T17:06:49.625Z,10.67
2022-11-10T17:26:52.098Z,10.58
2022-11-10T17:46:54.476Z,10.76
2022-11-10T18:06:56.928Z,9.78
2022-11-10T18:26:59.406Z,9.60
2022-11-10T18:47:01.877Z,8.90
2022-11-10T19:07:04.581Z,8.48
2022-11-10T19:27:08.545Z,8.10
2022-11-10T19:47:11.090Z,7.99
2022-11-10T20:07:32.763Z,7.81
2022-11-10T20:27:36.374Z,7.87
2022-11-10T20:47:38.852Z,7.86
2022-11-10T21:07:45.461Z,7.59
